createdAt,value
2023-04-05T00:01:53.652Z,100.00
2023-04-05T00:04:23.639Z,100.00
2023-04-05T00:06:52.392Z,100.00
2023-04-05T00:09:23.399Z,100.00
2023-04-05T00:11:49.817Z,100.00
2023-04-05T00:14:16.131Z,100.00
2023-04-05T00:16:43.036Z,100.00
2023-04-05T00:19:12.163Z,100.00
2023-04-05T00:21:39.539Z,100.00
2023-04-05T00:24:15.676Z,100.00
2023-04-05T00:26:43.851Z,100.00
2023-04-05T00:29:10.287Z,100.00
2023-04-05T00:31:36.629Z,100.00
2023-04-05T00:34:03.247Z,100.00
2023-04-05T00:36:29.580Z,100.00
2023-04-05T00:38:56.027Z,100.00
2023-04-05T00:41:22.421Z,100.00
2023-04-05T00:43:49.173Z,100.00
2023-04-05T00:46:16.736Z,100.00
2023-04-05T00:48:43.708Z,100.00
2023-04-05T00:51:11.667Z,100.00
2023-04-05T00:53:38.747Z,100.00
2023-04-05T00:56:05.471Z,100.00
2023-04-05T00:58:33.756Z,100.00
2023-04-05T01:01:22.233Z,100.00
2023-04-05T01:03:55.488Z,100.00
2023-04-05T01:07:00.549Z,100.00
2023-04-05T01:09:48.354Z,100.00
2023-04-05T01:12:19.254Z,100.00
2023-04-05T01:14:52.998Z,100.00
2023-04-05T01:17:28.150Z,100.00
2023-04-05T01:19:59.303Z,100.00
2023-04-05T01:22:54.061Z,100.00
2023-04-05T01:25:39.017Z,100.00
2023-04-05T01:28:16.405Z,100.00
2023-04-05T01:30:48.764Z,100.00
2023-04-05T01:33:26.112Z,100.00
2023-04-05T01:35:52.393Z,100.00
2023-04-05T01:38:25.121Z,100.00
2023-04-05T01:40:53.223Z,100.00
2023-04-05T01:43:19.765Z,100.00
2023-04-05T01:45:46.936Z,100.00
2023-04-05T01:48:14.105Z,100.00
2023-04-05T01:50:40.737Z,100.00
2023-04-05T01:53:08.147Z,100.00
2023-04-05T01:55:34.486Z,100.00
2023-04-05T01:58:00.947Z,100.00
2023-04-05T02:00:27.831Z,100.00
2023-04-05T02:02:54.304Z,100.00
2023-04-05T02:05:20.854Z,100.00
2023-04-05T02:07:47.210Z,100.00
2023-04-05T02:10:14.544Z,100.00
2023-04-05T02:12:40.869Z,100.00
2023-04-05T02:15:07.828Z,100.00
2023-04-05T02:17:38.971Z,100.00
2023-04-05T02:20:10.436Z,100.00
2023-04-05T02:22:39.947Z,100.00
2023-04-05T02:25:10.974Z,100.00
2023-04-05T02:27:37.417Z,100.00
2023-04-05T02:30:05.708Z,100.00
2023-04-05T02:32:32.061Z,100.00
2023-04-05T02:34:58.377Z,100.00
2023-04-05T02:37:26.061Z,100.00
2023-04-05T02:39:53.108Z,100.00
2023-04-05T02:42:19.376Z,100.00
2023-04-05T02:44:45.755Z,100.00
2023-04-05T02:47:12.010Z,100.00
2023-04-05T02:49:38.359Z,100.00
2023-04-05T02:52:04.913Z,100.00
2023-04-05T02:54:31.245Z,100.00
2023-04-05T02:56:57.672Z,100.00
2023-04-05T02:59:24.279Z,100.00
2023-04-05T03:01:50.684Z,100.00
2023-04-05T03:04:17.343Z,100.00
2023-04-05T03:06:46.193Z,100.00
2023-04-05T03:09:12.562Z,100.00
2023-04-05T03:11:38.839Z,100.00
2023-04-05T03:14:05.209Z,100.00
2023-04-05T03:16:31.595Z,100.00
2023-04-05T03:18:58.037Z,100.00
2023-04-05T03:21:24.452Z,100.00
2023-04-05T03:23:50.778Z,100.00
2023-04-05T03:26:17.297Z,100.00
2023-04-05T03:28:44.090Z,100.00
2023-04-05T03:31:13.796Z,100.00
2023-04-05T03:33:40.151Z,100.00
2023-04-05T03:36:06.913Z,100.00
2023-04-05T03:38:33.192Z,100.00
2023-04-05T03:40:59.648Z,100.00
2023-04-05T03:43:27.663Z,100.00
2023-04-05T03:45:54.101Z,100.00
2023-04-05T03:48:21.604Z,100.00
2023-04-05T03:50:47.946Z,100.00
2023-04-05T03:53:17.594Z,100.00
2023-04-05T03:55:49.138Z,100.00
2023-04-05T03:58:16.877Z,100.00
2023-04-05T04:00:43.262Z,100.00
2023-04-05T04:03:09.769Z,100.00
2023-04-05T04:05:39.284Z,100.00
2023-04-05T04:08:06.364Z,100.00
2023-04-05T04:10:32.758Z,100.00
2023-04-05T04:12:59.030Z,100.00
2023-04-05T04:15:25.449Z,100.00
2023-04-05T04:17:51.791Z,100.00
2023-04-05T04:20:18.264Z,100.00
2023-04-05T04:22:45.715Z,100.00
2023-04-05T04:25:12.531Z,100.00
2023-04-05T04:27:41.805Z,100.00
2023-04-05T04:30:10.326Z,100.00
2023-04-05T04:32:55.082Z,100.00
2023-04-05T04:35:26.591Z,100.00
2023-04-05T04:37:59.651Z,100.00
2023-04-05T04:40:38.478Z,100.00
2023-04-05T04:43:18.883Z,100.00
2023-04-05T04:45:48.169Z,100.00
2023-04-05T04:48:16.527Z,100.00
2023-04-05T04:50:44.104Z,100.00
2023-04-05T04:53:10.958Z,100.00
2023-04-05T04:55:38.435Z,100.00
2023-04-05T04:58:09.617Z,100.00
2023-04-05T05:00:38.754Z,100.00
2023-04-05T05:03:06.134Z,100.00
2023-04-05T05:05:32.580Z,100.00
2023-04-05T05:07:58.926Z,100.00
2023-04-05T05:10:25.411Z,100.00
2023-04-05T05:12:51.894Z,100.00
2023-04-05T05:15:19.849Z,100.00
2023-04-05T05:17:46.197Z,100.00
2023-04-05T05:20:12.566Z,100.00
2023-04-05T05:22:39.267Z,100.00
2023-04-05T05:25:07.249Z,100.00
2023-04-05T05:27:36.240Z,100.00
2023-04-05T05:30:02.700Z,100.00
2023-04-05T05:32:29.214Z,100.00
2023-04-05T05:34:55.647Z,100.00
2023-04-05T05:37:29.800Z,100.00
2023-04-05T05:39:56.259Z,100.00
2023-04-05T05:42:22.727Z,100.00
2023-04-05T05:44:49.193Z,100.00
2023-04-05T05:47:15.527Z,100.00
2023-04-05T05:49:41.894Z,100.00
2023-04-05T05:52:08.293Z,100.00
2023-04-05T05:54:34.613Z,100.00
2023-04-05T05:57:02.174Z,100.00
2023-04-05T05:59:28.846Z,100.00
2023-04-05T06:01:55.480Z,100.00
2023-04-05T06:04:22.626Z,100.00
2023-04-05T06:06:49.109Z,100.00
2023-04-05T06:09:15.823Z,100.00
2023-04-05T06:11:53.209Z,100.00
2023-04-05T06:14:22.771Z,100.00
2023-04-05T06:16:49.106Z,100.00
2023-04-05T06:19:15.542Z,100.00
2023-04-05T06:21:41.829Z,100.00
2023-04-05T06:24:08.156Z,100.00
2023-04-05T06:26:34.807Z,100.00
2023-04-05T06:29:01.097Z,100.00
2023-04-05T06:31:31.774Z,100.00
2023-04-05T06:33:58.255Z,100.00
2023-04-05T06:36:27.355Z,100.00
2023-04-05T06:38:54.190Z,100.00
2023-04-05T06:41:20.702Z,100.00
2023-04-05T06:43:47.060Z,100.00
2023-04-05T06:46:14.046Z,100.00
2023-04-05T06:48:40.412Z,100.00
2023-04-05T06:51:06.836Z,100.00
2023-04-05T06:53:33.134Z,100.00
2023-04-05T06:55:59.807Z,100.00
2023-04-05T06:58:27.250Z,100.00
2023-04-05T07:00:54.220Z,100.00
2023-04-05T07:03:20.940Z,100.00
2023-04-05T07:06:06.144Z,100.00
2023-04-05T07:08:33.073Z,100.00
2023-04-05T07:10:59.544Z,100.00
2023-04-05T07:13:26.101Z,100.00
2023-04-05T07:15:59.307Z,100.00
2023-04-05T07:18:25.707Z,100.00
2023-04-05T07:20:54.002Z,100.00
2023-04-05T07:23:21.314Z,100.00
2023-04-05T07:25:48.927Z,100.00
2023-04-05T07:28:15.251Z,100.00
2023-04-05T07:30:41.896Z,100.00
2023-04-05T07:33:08.407Z,100.00
2023-04-05T07:35:34.809Z,100.00
2023-04-05T07:38:01.175Z,100.00
2023-04-05T07:40:27.846Z,100.00
2023-04-05T07:42:54.464Z,100.00
2023-04-05T07:45:21.022Z,100.00
2023-04-05T07:47:47.350Z,100.00
2023-04-05T07:50:15.170Z,100.00
2023-04-05T07:52:42.439Z,100.00
2023-04-05T07:55:09.801Z,100.00
2023-04-05T07:57:36.354Z,100.00
2023-04-05T08:00:04.525Z,100.00
2023-04-05T08:02:31.119Z,100.00
2023-04-05T08:04:57.576Z,100.00
2023-04-05T08:07:25.243Z,100.00
2023-04-05T08:09:51.722Z,100.00
2023-04-05T08:12:18.889Z,100.00
2023-04-05T08:14:45.398Z,100.00
2023-04-05T08:17:11.816Z,100.00
2023-04-05T08:19:38.111Z,100.00
2023-04-05T08:22:04.478Z,100.00
2023-04-05T08:24:30.867Z,100.00
2023-04-05T08:26:57.280Z,100.00
2023-04-05T08:29:23.595Z,100.00
2023-04-05T08:31:49.995Z,100.00
2023-04-05T08:34:16.303Z,100.00
2023-04-05T08:36:42.635Z,100.00
2023-04-05T08:39:09.038Z,100.00
2023-04-05T08:41:37.302Z,100.00
2023-04-05T08:44:05.485Z,100.00
2023-04-05T08:46:34.392Z,100.00
2023-04-05T08:49:06.627Z,100.00
2023-04-05T08:51:33.489Z,100.00
2023-04-05T08:54:00.975Z,100.00
2023-04-05T08:56:33.494Z,100.00
2023-04-05T08:59:08.283Z,100.00
2023-04-05T09:01:38.024Z,100.00
2023-04-05T09:04:13.946Z,100.00
2023-04-05T09:06:40.495Z,100.00
2023-04-05T09:09:08.349Z,100.00
2023-04-05T09:11:35.766Z,100.00
2023-04-05T09:14:05.909Z,100.00
2023-04-05T09:16:34.055Z,100.00
2023-04-05T09:19:00.768Z,100.00
2023-04-05T09:21:29.402Z,100.00
2023-04-05T09:23:56.207Z,100.00
2023-04-05T09:26:26.154Z,100.00
2023-04-05T09:28:52.514Z,100.00
2023-04-05T09:31:32.930Z,100.00
2023-04-05T09:34:03.118Z,100.00
2023-04-05T09:36:29.922Z,100.00
2023-04-05T09:39:05.424Z,100.00
2023-04-05T09:41:31.902Z,100.00
2023-04-05T09:44:00.738Z,100.00
2023-04-05T09:46:30.168Z,100.00
2023-04-05T09:48:57.124Z,100.00
2023-04-05T09:51:23.604Z,100.00
2023-04-05T09:54:04.863Z,100.00
2023-04-05T09:56:35.792Z,100.00
2023-04-05T09:59:06.657Z,100.00
2023-04-05T10:01:33.662Z,100.00
2023-04-05T10:04:00.720Z,100.00
2023-04-05T10:06:37.608Z,100.00
2023-04-05T10:09:05.197Z,100.00
2023-04-05T10:11:32.799Z,100.00
2023-04-05T10:14:01.872Z,100.00
2023-04-05T10:16:30.913Z,100.00
2023-04-05T10:18:57.323Z,100.00
2023-04-05T10:21:29.745Z,100.00
2023-04-05T10:24:24.038Z,100.00
2023-04-05T10:27:06.365Z,100.00
2023-04-05T10:29:47.637Z,100.00
2023-04-05T10:32:23.527Z,100.00
2023-04-05T10:34:58.791Z,100.00
2023-04-05T10:37:36.852Z,100.00
2023-04-05T10:40:09.122Z,100.00
2023-04-05T10:42:47.424Z,100.00
2023-04-05T10:45:17.936Z,100.00
2023-04-05T10:47:59.210Z,100.00
2023-04-05T10:50:25.770Z,100.00
2023-04-05T10:52:53.548Z,100.00
2023-04-05T10:55:21.823Z,100.00
2023-04-05T10:57:49.817Z,100.00
2023-04-05T11:00:17.776Z,100.00
2023-04-05T11:02:44.616Z,100.00
2023-04-05T11:05:32.201Z,100.00
2023-04-05T11:08:07.303Z,100.00
2023-04-05T11:10:38.738Z,100.00
2023-04-05T11:13:08.993Z,100.00
2023-04-05T11:15:36.166Z,100.00
2023-04-05T11:18:04.205Z,100.00
2023-04-05T11:20:52.844Z,100.00
2023-04-05T11:23:21.497Z,100.00
2023-04-05T11:25:54.524Z,100.00
2023-04-05T11:28:26.203Z,100.00
2023-04-05T11:30:58.682Z,100.00
2023-04-05T11:33:39.744Z,99.19
2023-04-05T11:36:06.784Z,100.00
2023-04-05T11:38:33.547Z,86.91
2023-04-05T11:41:21.259Z,76.67
2023-04-05T11:43:47.958Z,87.55
2023-04-05T11:46:18.903Z,100.00
2023-04-05T11:48:51.485Z,100.00
2023-04-05T11:51:22.936Z,100.00
2023-04-05T11:53:49.281Z,100.00
2023-04-05T11:56:16.061Z,100.00
2023-04-05T11:58:42.698Z,100.00
2023-04-05T12:01:09.340Z,100.00
2023-04-05T12:03:37.266Z,100.00
2023-04-05T12:06:05.951Z,100.00
2023-04-05T12:08:49.849Z,100.00
2023-04-05T12:11:23.242Z,100.00
2023-04-05T12:13:54.373Z,100.00
2023-04-05T12:16:20.777Z,100.00
2023-04-05T12:18:54.702Z,100.00
2023-04-05T12:21:21.876Z,100.00
2023-04-05T12:23:49.295Z,100.00
2023-04-05T12:26:16.029Z,100.00
2023-04-05T12:28:52.983Z,100.00
2023-04-05T12:31:38.879Z,100.00
2023-04-05T12:34:06.237Z,97.86
2023-04-05T12:36:32.899Z,95.62
2023-04-05T12:38:59.993Z,91.56
2023-04-05T12:41:30.705Z,99.36
2023-04-05T12:44:01.536Z,99.85
2023-04-05T12:46:45.809Z,100.00
2023-04-05T12:49:12.546Z,100.00
2023-04-05T12:51:46.410Z,100.00
2023-04-05T12:54:22.081Z,100.00
2023-04-05T12:56:54.790Z,99.70
2023-04-05T12:59:22.373Z,100.00
2023-04-05T13:01:48.900Z,100.00
2023-04-05T13:04:16.918Z,99.73
2023-04-05T13:06:44.744Z,100.00
2023-04-05T13:09:11.047Z,97.06
2023-04-05T13:11:37.376Z,99.94
2023-04-05T13:14:03.715Z,94.20
2023-04-05T13:16:30.094Z,97.20
2023-04-05T13:18:56.650Z,94.57
2023-04-05T13:21:22.993Z,98.73
2023-04-05T13:23:49.343Z,95.18
2023-04-05T13:26:15.618Z,93.65
2023-04-05T13:28:41.940Z,99.04
2023-04-05T13:31:08.364Z,98.62
2023-04-05T13:33:34.907Z,99.23
2023-04-05T13:36:01.407Z,100.00
2023-04-05T13:38:27.742Z,100.00
2023-04-05T13:40:54.160Z,91.97
2023-04-05T13:43:20.488Z,92.44
2023-04-05T13:45:46.779Z,77.83
2023-04-05T13:48:13.167Z,73.59
2023-04-05T13:50:39.730Z,64.92
2023-04-05T13:53:06.273Z,70.59
2023-04-05T13:55:32.655Z,80.05
2023-04-05T13:57:58.925Z,75.92
2023-04-05T14:00:25.484Z,79.65
2023-04-05T14:02:51.960Z,79.72
2023-04-05T14:05:18.542Z,89.89
2023-04-05T14:07:44.934Z,97.77
2023-04-05T14:10:11.618Z,96.64
2023-04-05T14:12:38.700Z,100.00
2023-04-05T14:15:05.802Z,100.00
2023-04-05T14:17:32.290Z,100.00
2023-04-05T14:19:58.945Z,94.55
2023-04-05T14:22:25.708Z,99.16
2023-04-05T14:24:52.028Z,98.43
2023-04-05T14:27:22.004Z,94.78
2023-04-05T14:29:48.602Z,90.83
2023-04-05T14:32:15.501Z,93.81
2023-04-05T14:34:42.011Z,89.44
2023-04-05T14:37:08.534Z,84.99
2023-04-05T14:39:35.019Z,92.51
2023-04-05T14:42:01.465Z,88.55
2023-04-05T14:44:27.905Z,91.08
2023-04-05T14:46:54.290Z,83.30
2023-04-05T14:49:21.457Z,84.21
2023-04-05T14:51:48.003Z,91.10
2023-04-05T14:54:14.472Z,86.70
2023-04-05T14:56:40.812Z,86.74
2023-04-05T14:59:07.312Z,93.86
2023-04-05T15:01:33.773Z,90.27
2023-04-05T15:04:00.525Z,98.41
2023-04-05T15:06:26.951Z,91.53
2023-04-05T15:08:53.338Z,93.67
2023-04-05T15:11:21.517Z,96.57
2023-04-05T15:13:47.915Z,91.06
2023-04-05T15:16:14.416Z,90.21
2023-04-05T15:18:40.874Z,100.00
2023-04-05T15:21:07.489Z,100.00
2023-04-05T15:23:34.187Z,100.00
2023-04-05T15:26:00.755Z,100.00
2023-04-05T15:28:27.064Z,100.00
2023-04-05T15:30:53.484Z,100.00
2023-04-05T15:33:19.991Z,100.00
2023-04-05T15:35:46.521Z,100.00
2023-04-05T15:38:12.963Z,100.00
2023-04-05T15:40:40.089Z,100.00
2023-04-05T15:43:06.527Z,100.00
2023-04-05T15:45:32.989Z,100.00
2023-04-05T15:47:59.607Z,100.00
2023-04-05T15:50:26.295Z,100.00
2023-04-05T15:52:52.730Z,100.00
2023-04-05T15:55:19.270Z,100.00
2023-04-05T15:57:45.917Z,100.00
2023-04-05T16:00:13.063Z,100.00
2023-04-05T16:02:39.550Z,100.00
2023-04-05T16:05:06.481Z,100.00
2023-04-05T16:07:32.934Z,100.00
2023-04-05T16:09:59.297Z,100.00
2023-04-05T16:12:25.888Z,100.00
2023-04-05T16:14:52.360Z,100.00
2023-04-05T16:17:20.440Z,100.00
2023-04-05T16:19:46.939Z,100.00
2023-04-05T16:22:13.461Z,100.00
2023-04-05T16:24:39.977Z,100.00
2023-04-05T16:27:06.662Z,100.00
2023-04-05T16:29:33.197Z,100.00
2023-04-05T16:31:59.709Z,100.00
2023-04-05T16:34:26.394Z,100.00
2023-04-05T16:36:52.820Z,100.00
2023-04-05T16:39:19.220Z,100.00
2023-04-05T16:41:45.691Z,100.00
2023-04-05T16:44:12.045Z,100.00
2023-04-05T16:46:38.493Z,100.00
2023-04-05T16:49:05.211Z,100.00
2023-04-05T16:51:34.192Z,100.00
2023-04-05T16:54:00.721Z,100.00
2023-04-05T16:56:27.083Z,100.00
2023-04-05T16:58:53.604Z,100.00
2023-04-05T17:01:20.281Z,100.00
2023-04-05T17:03:47.046Z,100.00
2023-04-05T17:06:14.676Z,100.00
2023-04-05T17:08:41.288Z,100.00
2023-04-05T17:11:07.700Z,100.00
2023-04-05T17:13:34.068Z,100.00
2023-04-05T17:16:00.778Z,100.00
2023-04-05T17:18:27.162Z,100.00
2023-04-05T17:20:53.564Z,100.00
2023-04-05T17:23:19.896Z,100.00
2023-04-05T17:25:46.289Z,100.00
2023-04-05T17:28:13.027Z,100.00
2023-04-05T17:30:39.398Z,100.00
2023-04-05T17:33:06.244Z,100.00
2023-04-05T17:35:32.750Z,100.00
2023-04-05T17:37:59.210Z,100.00
2023-04-05T17:40:25.563Z,100.00
2023-04-05T17:42:51.854Z,100.00
2023-04-05T17:45:18.311Z,100.00
2023-04-05T17:47:44.758Z,100.00
2023-04-05T17:50:11.461Z,100.00
2023-04-05T17:52:37.844Z,100.00
2023-04-05T17:55:04.831Z,100.00
2023-04-05T17:57:31.205Z,100.00
2023-04-05T17:59:59.076Z,100.00
2023-04-05T18:02:25.612Z,100.00
2023-04-05T18:04:52.053Z,100.00
2023-04-05T18:07:18.525Z,100.00
2023-04-05T18:09:44.942Z,100.00
2023-04-05T18:12:11.484Z,100.00
2023-04-05T18:14:37.994Z,100.00
2023-04-05T18:17:07.211Z,100.00
2023-04-05T18:19:33.638Z,100.00
2023-04-05T18:22:00.136Z,100.00
2023-04-05T18:24:26.578Z,100.00
2023-04-05T18:26:53.008Z,100.00
2023-04-05T18:29:19.355Z,100.00
2023-04-05T18:31:45.778Z,100.00
2023-04-05T18:34:12.144Z,100.00
2023-04-05T18:36:39.622Z,100.00
2023-04-05T18:39:06.415Z,100.00
2023-04-05T18:41:32.939Z,100.00
2023-04-05T18:43:59.587Z,100.00
2023-04-05T18:46:26.402Z,100.00
2023-04-05T18:48:54.695Z,100.00
2023-04-05T18:51:22.435Z,100.00
2023-04-05T18:53:49.043Z,100.00
2023-04-05T18:56:16.289Z,100.00
2023-04-05T18:58:42.809Z,100.00
2023-04-05T19:01:12.751Z,100.00
2023-04-05T19:03:39.730Z,100.00
2023-04-05T19:06:06.339Z,100.00
2023-04-05T19:08:33.273Z,100.00
2023-04-05T19:10:59.710Z,100.00
2023-04-05T19:13:26.126Z,100.00
2023-04-05T19:15:53.143Z,100.00
2023-04-05T19:18:25.684Z,100.00
2023-04-05T19:20:57.269Z,100.00
2023-04-05T19:23:27.714Z,100.00
2023-04-05T19:25:54.864Z,100.00
2023-04-05T19:28:21.211Z,100.00
2023-04-05T19:30:47.566Z,100.00
2023-04-05T19:33:14.156Z,100.00
2023-04-05T19:35:40.989Z,100.00
2023-04-05T19:38:07.509Z,100.00
2023-04-05T19:40:33.914Z,100.00
2023-04-05T19:43:01.885Z,100.00
2023-04-05T19:45:30.418Z,100.00
2023-04-05T19:47:58.785Z,100.00
2023-04-05T19:50:48.850Z,100.00
2023-04-05T19:53:49.578Z,100.00
2023-04-05T19:56:25.478Z,100.00
2023-04-05T19:59:01.067Z,100.00
2023-04-05T20:01:39.073Z,100.00
2023-04-05T20:04:14.462Z,100.00
2023-04-05T20:06:42.476Z,100.00
2023-04-05T20:09:11.308Z,100.00
2023-04-05T20:11:37.681Z,100.00
2023-04-05T20:14:05.327Z,100.00
2023-04-05T20:16:34.037Z,100.00
2023-04-05T20:19:06.328Z,100.00
2023-04-05T20:21:33.347Z,100.00
2023-04-05T20:24:01.159Z,100.00
2023-04-05T20:26:31.694Z,100.00
2023-04-05T20:29:00.949Z,100.00
2023-04-05T20:31:32.261Z,100.00
2023-04-05T20:34:12.877Z,100.00
2023-04-05T20:36:48.055Z,100.00
2023-04-05T20:39:14.497Z,100.00
2023-04-05T20:41:40.872Z,100.00
2023-04-05T20:44:07.582Z,100.00
2023-04-05T20:46:34.202Z,100.00
2023-04-05T20:49:01.071Z,100.00
2023-04-05T20:51:27.496Z,100.00
2023-04-05T20:53:53.929Z,100.00
2023-04-05T20:56:20.321Z,100.00
2023-04-05T20:58:46.682Z,100.00
2023-04-05T21:01:13.127Z,100.00
2023-04-05T21:03:41.680Z,100.00
2023-04-05T21:06:09.570Z,100.00
2023-04-05T21:08:38.804Z,100.00
2023-04-05T21:11:06.632Z,100.00
2023-04-05T21:13:33.512Z,100.00
2023-04-05T21:16:00.108Z,100.00
2023-04-05T21:18:26.958Z,100.00
2023-04-05T21:20:54.063Z,100.00
2023-04-05T21:23:23.506Z,100.00
2023-04-05T21:25:50.230Z,100.00
2023-04-05T21:28:16.831Z,100.00
2023-04-05T21:30:43.763Z,100.00
2023-04-05T21:33:10.773Z,100.00
2023-04-05T21:35:37.306Z,100.00
2023-04-05T21:38:03.987Z,100.00
2023-04-05T21:40:30.728Z,100.00
2023-04-05T21:42:57.441Z,100.00
2023-04-05T21:45:24.229Z,100.00
2023-04-05T21:47:50.743Z,100.00
2023-04-05T21:50:17.397Z,100.00
2023-04-05T21:52:45.248Z,100.00
2023-04-05T21:55:12.532Z,100.00
2023-04-05T21:57:38.893Z,100.00
2023-04-05T22:00:10.804Z,100.00
2023-04-05T22:02:40.729Z,100.00
2023-04-05T22:05:07.952Z,100.00
2023-04-05T22:07:35.325Z,100.00
2023-04-05T22:10:02.234Z,100.00
2023-04-05T22:12:28.666Z,100.00
2023-04-05T22:14:55.160Z,100.00
2023-04-05T22:17:21.701Z,100.00
2023-04-05T22:19:48.300Z,100.00
2023-04-05T22:22:14.976Z,100.00
2023-04-05T22:24:44.780Z,100.00
2023-04-05T22:27:11.683Z,100.00
2023-04-05T22:29:38.417Z,100.00
2023-04-05T22:32:05.065Z,100.00
2023-04-05T22:34:31.554Z,100.00
2023-04-05T22:36:58.075Z,100.00
2023-04-05T22:39:24.500Z,100.00
2023-04-05T22:41:50.871Z,100.00
2023-04-05T22:44:17.224Z,100.00
2023-04-05T22:46:43.616Z,100.00
2023-04-05T22:49:10.087Z,100.00
2023-04-05T22:51:36.867Z,100.00
2023-04-05T22:54:03.459Z,100.00
2023-04-05T22:56:30.270Z,100.00
2023-04-05T22:58:56.691Z,100.00
2023-04-05T23:01:23.201Z,100.00
2023-04-05T23:03:49.541Z,100.00
2023-04-05T23:06:15.919Z,100.00
2023-04-05T23:08:42.250Z,100.00
2023-04-05T23:11:08.599Z,100.00
2023-04-05T23:13:35.170Z,100.00
2023-04-05T23:16:02.484Z,100.00
2023-04-05T23:18:28.873Z,100.00
2023-04-05T23:20:55.369Z,100.00
2023-04-05T23:23:21.730Z,100.00
2023-04-05T23:25:48.186Z,100.00
2023-04-05T23:28:14.545Z,100.00
2023-04-05T23:30:41.369Z,100.00
2023-04-05T23:33:07.955Z,100.00
2023-04-05T23:35:39.524Z,100.00
2023-04-05T23:38:06.237Z,100.00
2023-04-05T23:40:32.663Z,100.00
2023-04-05T23:42:58.969Z,100.00
2023-04-05T23:45:25.624Z,100.00
2023-04-05T23:47:52.410Z,100.00
2023-04-05T23:50:18.835Z,100.00
2023-04-05T23:52:45.533Z,100.00
2023-04-05T23:55:12.052Z,100.00
2023-04-05T23:57:38.448Z,100.00
